Decoded Metar for KBVE (BOOTHVILLE in LA, USA) (IATA:BVE) | Meteo·Mobile Aviation Weather
aviador You're here:

KBVE Decoded Metar

BOOTHVILLE in LA, USA
Report Time2018-12-13 11:51:00
UTC Time2018-12-13 12:03:15
Flight Rules vfr VFR
Wind110° at 08 kt
W.Rank110° ranks 3
Current wind is above 110° avg. (5.7)
Visibility9999 m
Phenomena:N/A
Clouds:Few 029 Hf
Expected CloudBase > 400 ft AGL from Temp-Dew spread
CeilingNone
Temp14°C (ISA -1)
Dew Point13°C (94% RH)
AAT12.1°C
QNH1015 hPa
Density Alt16 ft
Elevation3 ft
Report Wrong Elevation
Raw Report
KBVE 131151Z AUTO 11008KT 10SM FEW029 14/13 A2997 RMK AO2 SLP148
T01440128 10161 20128 56020=

Extra information for KBVE:More info

Metar Taf Metar & Taf Last 4 Metars F.Rules Stats Wind Profile Meteogram Temp Stats Airport Information Weather charts Add Link Nearby VenuesMetar ALERT Operation Metar Decoded Social comments

AIRNAV info for KBVE